Time;durP1;ratioP1;P1;durP2;ratioP2;P2;SDS_P1;SDS_P2;PMS_P1;PMS_P2;Temp;Humidity;BMP_temperature;BMP_pressure;BME280_temperature;BME280_humidity;BME280_pressure;Samples;Min_cycle;Max_cycle;Signal;HPM_P1;HPM_P2
2022/12/04 00:00:31;;;;;;;5.72;3.42;;;4.30;99.90;;;4.36;80.14;100520.25;5030652;28;20238;-64
2022/12/04 00:02:58;;;;;;;10.23;5.43;;;4.30;99.90;;;4.30;80.71;100520.53;5031507;28;20202;-64
2022/12/04 00:05:25;;;;;;;7.07;3.88;;;4.30;99.90;;;4.35;80.49;100523.72;5040598;28;20201;-64
2022/12/04 00:07:52;;;;;;;0.88;0.85;;;4.30;99.90;;;4.42;79.88;100525.13;5031328;28;20288;-64
2022/12/04 00:10:19;;;;;;;1.60;1.50;;;4.30;99.90;;;4.48;79.88;100524.81;5029290;28;20231;-64
2022/12/04 00:12:46;;;;;;;2.75;2.15;;;4.40;99.90;;;4.45;80.11;100521.56;5029883;28;20197;-64
2022/12/04 00:15:13;;;;;;;8.00;5.18;;;4.40;99.90;;;4.47;79.81;100517.97;5030650;28;20282;-64
2022/12/04 00:17:56;;;;;;;5.85;2.45;;;4.40;99.90;;;4.53;80.43;100522.00;5029028;28;20290;-64
2022/12/04 00:20:23;;;;;;;9.80;5.80;;;4.40;99.90;;;4.47;80.33;100515.38;5010254;28;20228;-64
2022/12/04 00:22:50;;;;;;;3.63;2.22;;;4.40;99.90;;;4.60;80.09;100508.72;5028009;28;20699;-65
2022/12/04 00:25:17;;;;;;;6.80;5.15;;;4.40;99.90;;;4.46;80.36;100512.88;5036135;28;20203;-65
2022/12/04 00:27:44;;;;;;;5.95;3.92;;;4.40;99.90;;;4.52;80.26;100521.16;5033539;28;20794;-64
2022/12/04 00:30:11;;;;;;;1.85;1.27;;;4.40;99.90;;;4.63;79.12;100533.56;5009026;28;20234;-64
2022/12/04 00:32:38;;;;;;;6.30;4.40;;;4.40;99.90;;;4.53;79.35;100528.03;5017980;28;20204;-64
2022/12/04 00:35:06;;;;;;;9.05;5.65;;;4.40;99.90;;;4.32;81.36;100521.28;5030736;28;20203;-65
2022/12/04 00:37:32;;;;;;;10.77;5.45;;;4.40;99.90;;;4.26;80.89;100516.41;5032918;28;20211;-64
2022/12/04 00:39:59;;;;;;;10.10;5.60;;;4.30;99.90;;;4.53;79.70;100511.69;5035303;28;20294;-64
2022/12/04 00:42:26;;;;;;;10.13;5.80;;;4.40;99.90;;;4.46;80.16;100511.13;5034028;28;20207;-64
2022/12/04 00:44:53;;;;;;;8.32;4.25;;;4.40;99.90;;;4.61;79.41;100514.72;5023584;28;20209;-64
2022/12/04 00:47:20;;;;;;;9.30;5.32;;;4.40;99.90;;;4.56;79.04;100507.19;5035018;28;20198;-64
2022/12/04 00:49:47;;;;;;;9.45;4.43;;;4.40;99.90;;;4.46;79.30;100502.53;5042974;28;20695;-64
2022/12/04 00:52:14;;;;;;;10.73;6.25;;;4.40;99.90;;;4.53;79.02;100507.34;5039606;28;20328;-65
2022/12/04 00:54:41;;;;;;;5.68;4.32;;;4.50;99.90;;;4.61;79.06;100500.06;5030058;28;20394;-65
2022/12/04 00:57:08;;;;;;;10.68;5.47;;;4.40;99.90;;;4.45;79.99;100493.13;5041559;28;20208;-64
2022/12/04 00:59:37;;;;;;;9.20;6.00;;;4.40;99.90;;;4.56;79.10;100486.50;5028703;28;20211;-64
2022/12/04 01:02:04;;;;;;;0.93;0.93;;;4.40;99.90;;;4.53;79.55;100493.59;5043780;28;20201;-64
2022/12/04 01:04:31;;;;;;;6.00;3.05;;;4.40;99.90;;;4.58;79.38;100492.44;5036632;28;20208;-64
2022/12/04 01:06:58;;;;;;;4.43;2.65;;;4.40;99.90;;;4.50;79.78;100486.81;5028989;28;20197;-64
2022/12/04 01:09:31;;;;;;;7.75;4.53;;;4.40;99.90;;;4.41;80.21;100482.09;5034425;28;20207;-64
2022/12/04 01:11:58;;;;;;;10.10;5.75;;;4.40;99.90;;;4.47;80.91;100480.97;5019572;28;20733;-64
2022/12/04 01:14:25;;;;;;;9.48;5.55;;;4.30;99.90;;;4.38;80.72;100478.84;5033081;28;20208;-64
2022/12/04 01:16:52;;;;;;;7.75;4.30;;;4.30;99.90;;;4.27;80.68;100479.38;5001561;28;20835;-64
2022/12/04 01:19:19;;;;;;;9.38;4.60;;;4.30;99.90;;;4.32;79.97;100482.53;5050305;28;20200;-64
2022/12/04 01:21:46;;;;;;;1.40;1.30;;;4.30;99.90;;;4.45;79.71;100496.53;5033371;28;20219;-64
2022/12/04 01:24:13;;;;;;;2.42;2.22;;;4.30;99.90;;;4.43;78.84;100490.59;5030925;28;20331;-64
2022/12/04 01:26:40;;;;;;;4.75;3.40;;;4.30;99.90;;;4.44;78.82;100491.44;5016252;28;20295;-64
2022/12/04 01:29:07;;;;;;;7.70;4.60;;;4.30;99.90;;;4.45;79.67;100500.88;5027921;28;20264;-64
2022/12/04 01:31:34;;;;;;;8.00;5.03;;;4.30;99.90;;;4.44;79.37;100500.03;5029995;28;20236;-64
2022/12/04 01:34:01;;;;;;;0.77;0.70;;;4.30;99.90;;;4.39;79.69;100502.00;5028272;28;20204;-64
2022/12/04 01:36:28;;;;;;;9.93;5.10;;;4.30;99.90;;;4.41;80.04;100507.09;5033411;28;20616;-64
2022/12/04 01:38:56;;;;;;;3.90;2.70;;;4.30;99.90;;;4.27;80.24;100505.19;5032403;28;20209;-64
2022/12/04 01:41:27;;;;;;;4.75;3.97;;;4.30;99.90;;;4.40;78.99;100506.28;5029701;28;20225;-64
2022/12/04 01:44:18;;;;;;;3.72;3.08;;;4.30;99.90;;;4.38;79.38;100505.50;5030878;28;20213;-64
2022/12/04 01:46:59;;;;;;;1.20;1.08;;;4.30;99.90;;;4.22;80.14;100511.47;5032353;28;20204;-65
2022/12/04 01:49:47;;;;;;;1.67;1.20;;;4.20;99.90;;;3.84;81.92;100514.13;5032409;28;20269;-63
2022/12/04 01:52:25;;;;;;;2.90;1.98;;;4.00;99.90;;;3.97;81.30;100508.38;5030246;28;20205;-64
2022/12/04 01:54:59;;;;;;;2.38;1.88;;;4.00;99.90;;;3.92;81.86;100493.09;5031602;28;20199;-64
2022/12/04 01:57:31;;;;;;;6.95;4.40;;;4.00;99.90;;;4.05;81.27;100506.25;5033931;28;20190;-64
2022/12/04 02:00:28;;;;;;;5.45;3.65;;;4.00;99.90;;;4.16;80.98;100504.88;5011010;28;20230;-64
2022/12/04 02:02:55;;;;;;;2.40;1.42;;;4.10;99.90;;;4.27;80.42;100506.94;5023229;28;20212;-64
2022/12/04 02:05:22;;;;;;;2.58;1.70;;;4.10;99.90;;;4.30;79.77;100505.03;5011864;28;20204;-64
2022/12/04 02:07:54;;;;;;;4.57;2.58;;;4.10;99.90;;;4.24;79.44;100499.34;5031438;28;20202;-64
2022/12/04 02:10:32;;;;;;;9.23;5.10;;;4.10;99.90;;;4.24;80.04;100509.69;5013002;28;20223;-64
2022/12/04 02:13:22;;;;;;;9.00;5.72;;;4.10;99.90;;;4.33;80.19;100515.22;5001794;28;20233;-64
2022/12/04 02:16:29;;;;;;;4.07;3.15;;;4.10;99.90;;;4.35;79.98;100497.91;5041444;28;20294;-64
2022/12/04 02:18:58;;;;;;;3.35;2.47;;;4.20;99.90;;;4.45;80.19;100503.47;5010497;28;20210;-64
2022/12/04 02:21:35;;;;;;;0.65;0.65;;;4.30;99.90;;;4.25;80.49;100517.34;5036922;28;20237;-64
2022/12/04 02:24:41;;;;;;;6.55;4.25;;;4.30;99.90;;;4.32;80.94;100513.53;5022566;28;20195;-64
2022/12/04 02:27:42;;;;;;;4.95;3.78;;;4.20;99.90;;;4.27;81.05;100504.34;5040124;28;20213;-64
2022/12/04 02:30:12;;;;;;;5.45;3.58;;;4.20;99.90;;;4.42;80.63;100501.03;5049129;22;20215;-65
2022/12/04 02:32:56;;;;;;;3.53;1.98;;;4.20;99.90;;;4.36;80.30;100498.75;5030029;28;20202;-65
2022/12/04 02:35:51;;;;;;;6.95;3.75;;;4.20;99.90;;;4.40;80.43;100501.09;5019952;28;20216;-68
2022/12/04 02:38:32;;;;;;;6.95;4.32;;;4.30;99.90;;;4.32;80.25;100505.78;5021272;28;20201;-67
2022/12/04 02:41:07;;;;;;;4.22;2.97;;;4.30;99.90;;;4.11;81.66;100504.22;5014014;28;20237;-70
2022/12/04 02:43:43;;;;;;;5.40;2.83;;;4.20;99.90;;;4.34;80.44;100511.75;5034386;28;20196;-65
2022/12/04 02:46:44;;;;;;;1.73;1.60;;;4.20;99.90;;;4.15;81.01;100510.94;5047879;28;20577;-65
2022/12/04 02:49:18;;;;;;;3.05;1.85;;;4.10;99.90;;;4.13;81.71;100507.56;5027886;28;20215;-66
2022/12/04 02:51:47;;;;;;;9.02;4.90;;;4.10;99.90;;;4.20;81.00;100496.06;5050385;28;20654;-65
2022/12/04 02:54:24;;;;;;;3.53;2.35;;;4.10;99.90;;;4.26;80.96;100507.84;5028411;28;20647;-66
2022/12/04 02:56:53;;;;;;;7.45;4.50;;;4.10;99.90;;;4.20;81.90;100511.56;5030473;28;20214;-66
2022/12/04 02:59:38;;;;;;;8.55;4.43;;;4.10;99.90;;;4.26;81.11;100503.50;5013749;28;20227;-65
2022/12/04 03:02:14;;;;;;;4.60;2.42;;;4.10;99.90;;;4.30;80.89;100494.69;5013399;28;20227;-66
2022/12/04 03:04:43;;;;;;;1.98;1.55;;;4.20;99.90;;;4.37;80.86;100492.66;5031455;28;20261;-66
2022/12/04 03:07:17;;;;;;;3.35;1.92;;;4.20;99.90;;;4.23;81.89;100484.75;5012845;28;20204;-66
2022/12/04 03:09:52;;;;;;;3.22;2.88;;;4.10;99.90;;;4.06;82.53;100485.56;4995049;28;20209;-66
2022/12/04 03:12:35;;;;;;;7.45;4.07;;;4.20;99.90;;;4.24;82.39;100474.34;4999560;28;20287;-68
2022/12/04 03:15:12;;;;;;;3.60;1.70;;;4.10;99.90;;;4.31;81.23;100473.13;5030030;28;20690;-65
2022/12/04 03:18:14;;;;;;;2.03;1.20;;;4.20;99.90;;;4.27;81.92;100469.03;5031155;28;20206;-68
2022/12/04 03:20:43;;;;;;;10.20;5.20;;;4.20;99.90;;;4.13;83.18;100465.44;5026448;28;20238;-65
2022/12/04 03:23:32;;;;;;;10.40;6.32;;;4.10;99.90;;;4.02;83.28;100471.13;5043541;28;20212;-65
2022/12/04 03:26:03;;;;;;;6.40;4.25;;;4.10;99.90;;;4.09;83.25;100469.91;4996511;28;20668;-65
2022/12/04 03:29:13;;;;;;;4.82;2.88;;;4.00;99.90;;;4.07;81.81;100470.91;5012708;28;20291;-66
2022/12/04 03:32:09;;;;;;;3.15;1.63;;;4.10;99.90;;;4.18;81.89;100481.53;5011122;28;20276;-67
2022/12/04 03:35:17;;;;;;;10.38;5.18;;;4.10;99.90;;;4.26;82.12;100480.25;4998659;28;20245;-67
2022/12/04 03:38:01;;;;;;;6.22;4.15;;;4.10;99.90;;;4.35;81.73;100478.97;5024984;28;20691;-68
2022/12/04 03:40:41;;;;;;;5.90;4.72;;;4.10;99.90;;;4.34;82.03;100475.59;5044446;28;20234;-66
2022/12/04 03:43:37;;;;;;;2.70;2.30;;;4.20;99.90;;;4.39;81.60;100473.59;5009360;28;20196;-66
2022/12/04 03:46:12;;;;;;;3.17;2.85;;;4.20;99.90;;;4.38;81.44;100471.09;5014975;28;20204;-65
2022/12/04 03:49:03;;;;;;;5.95;3.63;;;4.20;99.90;;;4.33;82.63;100467.88;5025156;28;20318;-68
2022/12/04 03:51:44;;;;;;;6.05;4.55;;;4.20;99.90;;;4.45;81.79;100475.06;5024872;28;20284;-67
2022/12/04 03:54:16;;;;;;;1.38;1.30;;;4.20;99.90;;;4.50;80.98;100471.31;5017558;28;20204;-66
2022/12/04 03:56:58;;;;;;;5.20;3.33;;;4.30;99.90;;;4.44;81.59;100471.63;5029664;28;20197;-66
2022/12/04 03:59:37;;;;;;;10.82;4.70;;;4.30;99.90;;;4.51;81.65;100470.44;5019745;28;20212;-65
2022/12/04 04:02:07;;;;;;;9.82;4.85;;;4.30;99.90;;;4.48;81.62;100470.56;5039783;28;20449;-65
2022/12/04 04:04:39;;;;;;;7.20;4.60;;;4.30;99.90;;;4.43;82.06;100464.78;5028026;28;20545;-65
2022/12/04 04:07:21;;;;;;;3.22;2.72;;;4.30;99.90;;;4.47;81.82;100463.72;5030219;28;20201;-65
2022/12/04 04:09:52;;;;;;;11.10;5.93;;;4.30;99.90;;;4.41;81.95;100466.59;5030612;28;20251;-65
2022/12/04 04:12:25;;;;;;;1.17;1.10;;;4.30;99.90;;;4.42;81.17;100457.97;5030764;28;20213;-65
2022/12/04 04:26:38;;;;;;;7.50;5.00;;;4.30;99.90;;;4.39;81.71;100454.66;5013711;28;20209;-68
2022/12/04 04:29:05;;;;;;;5.35;3.45;;;4.30;99.90;;;4.48;81.24;100452.47;5028163;28;20673;-65
2022/12/04 04:31:58;;;;;;;8.00;5.07;;;4.30;99.90;;;4.45;81.67;100452.63;5037831;28;20245;-66
2022/12/04 04:34:49;;;;;;;8.85;5.43;;;4.30;99.90;;;4.47;81.73;100440.47;5039188;28;20211;-65
2022/12/04 04:37:35;;;;;;;0.75;0.65;;;4.30;99.90;;;4.49;81.62;100443.00;5046030;28;20220;-66
2022/12/04 04:40:11;;;;;;;6.32;4.20;;;4.30;99.90;;;4.52;81.75;100453.16;5035934;28;20216;-66
2022/12/04 04:42:46;;;;;;;10.27;5.68;;;4.40;99.90;;;4.39;82.13;100452.09;5049963;28;20257;-65
2022/12/04 04:45:24;;;;;;;9.18;4.97;;;4.30;99.90;;;4.46;82.02;100443.13;5031892;28;20281;-65
2022/12/04 04:48:05;;;;;;;5.45;3.88;;;4.30;99.90;;;4.55;82.09;100453.84;5034733;28;20612;-65
2022/12/04 04:50:34;;;;;;;2.55;2.20;;;4.30;99.90;;;4.63;81.49;100435.38;5052251;28;20731;-65
2022/12/04 04:53:12;;;;;;;7.65;4.72;;;4.40;99.90;;;4.55;81.42;100440.09;5040488;28;20205;-65
2022/12/04 04:55:39;;;;;;;9.23;5.72;;;4.40;99.90;;;4.46;82.45;100443.13;5033663;28;20201;-66
2022/12/04 04:58:14;;;;;;;10.82;4.15;;;4.40;99.90;;;4.47;81.83;100449.97;5043658;28;20205;-65
2022/12/04 05:01:11;;;;;;;8.32;5.15;;;4.40;99.90;;;4.23;83.43;100457.19;5053702;28;20319;-65
2022/12/04 05:03:39;;;;;;;4.45;3.20;;;4.30;99.90;;;4.39;83.04;100458.09;5012966;28;20284;-66
2022/12/04 05:06:06;;;;;;;8.35;4.13;;;4.30;99.90;;;4.47;83.19;100460.31;5036289;28;20199;-69
2022/12/04 05:08:35;;;;;;;4.47;2.35;;;4.40;99.90;;;4.52;81.80;100461.75;5030134;28;20197;-66
2022/12/04 05:11:02;;;;;;;2.85;2.13;;;4.40;99.90;;;4.58;81.47;100471.78;5032592;28;20500;-66
2022/12/04 05:13:31;;;;;;;8.65;5.05;;;4.40;99.90;;;4.46;82.15;100468.97;5028025;28;20233;-65
2022/12/04 05:16:07;;;;;;;6.35;4.10;;;4.40;99.90;;;4.59;81.70;100473.47;5032943;28;20742;-66
2022/12/04 05:18:35;;;;;;;9.05;5.07;;;4.40;99.90;;;4.48;82.49;100465.41;5015768;28;20206;-66
2022/12/04 05:21:17;;;;;;;7.82;4.55;;;4.40;99.90;;;4.46;83.04;100461.22;5032964;28;20416;-66
2022/12/04 05:23:44;;;;;;;5.35;4.07;;;4.40;99.90;;;4.55;82.04;100468.50;5034084;28;20194;-68
2022/12/04 05:26:11;;;;;;;6.68;3.85;;;4.40;99.90;;;4.58;81.78;100458.00;5033252;28;20217;-65
2022/12/04 05:28:40;;;;;;;9.07;5.20;;;4.40;99.90;;;4.62;82.21;100460.38;5035639;28;20199;-66
2022/12/04 05:31:07;;;;;;;9.38;5.00;;;4.50;99.90;;;4.65;81.91;100460.22;5037988;28;20231;-65
2022/12/04 05:33:34;;;;;;;5.18;3.92;;;4.50;99.90;;;4.79;81.80;100464.72;5032025;28;20232;-68
2022/12/04 05:36:06;;;;;;;6.93;4.70;;;4.50;99.90;;;4.59;82.66;100460.53;5031405;28;20210;-65
2022/12/04 05:38:34;;;;;;;6.45;3.90;;;4.50;99.90;;;4.46;82.84;100466.38;5025572;28;20651;-70
2022/12/04 05:41:04;;;;;;;4.70;3.35;;;4.50;99.90;;;4.69;81.74;100456.56;5045732;28;20226;-66
2022/12/04 05:43:31;;;;;;;8.20;4.63;;;4.50;99.90;;;4.63;82.09;100461.22;5017624;28;20205;-66
2022/12/04 05:46:05;;;;;;;6.85;4.40;;;4.50;99.90;;;4.59;82.80;100457.94;5037936;28;20198;-66
2022/12/04 05:48:33;;;;;;;7.85;4.85;;;4.50;99.90;;;4.64;82.22;100457.72;5014716;28;20266;-66
2022/12/04 05:51:07;;;;;;;3.60;2.45;;;4.50;99.90;;;4.71;81.69;100464.25;5014748;28;20304;-66
2022/12/04 05:53:35;;;;;;;0.75;0.75;;;4.50;99.90;;;4.78;81.36;100459.59;5043257;28;20687;-66
2022/12/04 05:56:05;;;;;;;1.50;1.40;;;4.60;99.90;;;4.79;81.37;100458.69;5032287;28;20220;-65
2022/12/04 05:58:35;;;;;;;7.80;4.40;;;4.60;99.90;;;4.77;82.02;100463.91;5010605;28;20216;-66
2022/12/04 06:01:27;;;;;;;6.40;4.82;;;4.60;99.90;;;4.66;82.79;100464.47;5043064;28;20244;-67
2022/12/04 06:03:54;;;;;;;7.10;4.15;;;4.60;99.90;;;4.57;82.81;100472.69;5045160;28;20211;-66
2022/12/04 06:06:24;;;;;;;8.90;4.97;;;4.60;99.90;;;4.54;83.05;100456.50;5043275;28;20235;-66
2022/12/04 06:08:54;;;;;;;6.18;4.03;;;4.50;99.90;;;4.27;84.40;100463.88;5023102;28;20213;-65
2022/12/04 06:11:30;;;;;;;9.27;5.00;;;4.40;99.90;;;4.38;84.27;100463.34;5036677;28;20319;-65
2022/12/04 06:14:00;;;;;;;8.18;4.88;;;4.30;99.90;;;4.44;84.25;100469.03;5031718;28;20204;-66
2022/12/04 06:16:32;;;;;;;4.88;3.88;;;4.30;99.90;;;4.50;84.07;100478.22;5038463;28;20210;-65
2022/12/04 06:19:20;;;;;;;6.75;4.53;;;4.40;99.90;;;4.36;85.12;100468.59;5031144;28;20197;-66
2022/12/04 06:21:51;;;;;;;12.50;5.30;;;4.30;99.90;;;4.45;84.66;100473.28;5036195;28;20248;-66
2022/12/04 06:24:22;;;;;;;9.93;5.25;;;4.30;99.90;;;4.36;84.79;100460.84;5017398;28;20600;-66
2022/12/04 06:26:50;;;;;;;10.50;5.75;;;4.40;99.90;;;4.27;85.25;100463.88;5044126;28;20604;-65
2022/12/04 06:29:37;;;;;;;11.75;5.75;;;4.30;99.90;;;4.31;85.12;100462.81;5045972;28;20258;-66
2022/12/04 06:32:04;;;;;;;10.57;6.40;;;4.30;99.90;;;4.38;85.09;100459.03;5051439;28;20366;-68
2022/12/04 06:34:31;;;;;;;7.78;4.78;;;4.40;99.90;;;4.26;86.06;100461.38;5040027;28;20570;-67
2022/12/04 06:36:58;;;;;;;8.70;4.88;;;4.30;99.90;;;4.37;85.59;100459.91;5052192;28;20719;-66
2022/12/04 06:39:25;;;;;;;10.15;5.72;;;4.30;99.90;;;4.52;85.22;100466.06;5046413;28;20217;-65
2022/12/04 06:41:52;;;;;;;8.02;4.85;;;4.40;99.90;;;4.40;85.31;100456.34;5032081;28;20665;-68
2022/12/04 06:44:19;;;;;;;8.52;5.47;;;4.40;99.90;;;4.26;86.41;100457.03;5039822;28;20621;-65
2022/12/04 06:46:47;;;;;;;9.00;4.80;;;4.30;99.90;;;4.38;86.25;100459.03;5051734;28;20208;-65
2022/12/04 06:49:16;;;;;;;7.30;4.18;;;4.30;99.90;;;4.42;86.10;100462.28;5046650;28;20300;-67
2022/12/04 06:51:42;;;;;;;3.10;2.03;;;4.30;99.90;;;4.47;85.17;100455.97;5052381;28;20591;-67
2022/12/04 06:54:09;;;;;;;11.30;4.70;;;4.40;99.90;;;4.58;85.17;100458.00;5051094;28;20676;-64
2022/12/04 06:56:36;;;;;;;7.97;4.97;;;4.40;99.90;;;4.44;85.68;100450.97;5033437;28;20212;-68
2022/12/04 06:59:04;;;;;;;8.23;5.15;;;4.40;99.90;;;4.51;84.70;100465.25;5031041;28;20209;-65
2022/12/04 07:01:33;;;;;;;7.75;5.47;;;4.50;99.90;;;4.35;86.12;100458.31;5033571;28;20583;-65
2022/12/04 07:04:02;;;;;;;5.65;4.00;;;4.40;99.90;;;4.50;85.38;100468.75;5045056;28;20201;-65
2022/12/04 07:06:36;;;;;;;8.50;4.72;;;4.40;99.90;;;4.42;86.03;100465.72;5040273;28;20674;-66
2022/12/04 07:09:12;;;;;;;8.05;4.55;;;4.40;99.90;;;4.48;86.11;100460.22;5034292;28;20591;-67
2022/12/04 07:11:40;;;;;;;11.13;4.82;;;4.40;99.90;;;4.32;87.01;100461.88;5029245;28;20763;-67
2022/12/04 07:14:08;;;;;;;7.40;4.90;;;4.40;99.90;;;4.35;87.13;100461.75;5037522;28;20201;-66
2022/12/04 07:16:37;;;;;;;8.35;4.68;;;4.30;99.90;;;4.41;86.71;100460.59;5034467;28;20202;-65
2022/12/04 07:19:12;;;;;;;8.75;4.70;;;4.30;99.90;;;4.50;86.13;100458.41;5022066;28;20260;-68
2022/12/04 07:21:41;;;;;;;11.77;5.50;;;4.40;99.90;;;4.43;86.07;100453.63;5020774;28;20221;-65
2022/12/04 07:24:15;;;;;;;5.88;4.47;;;4.40;99.90;;;4.48;86.32;100457.66;5023929;28;20201;-65
2022/12/04 07:26:43;;;;;;;7.32;4.40;;;4.40;99.90;;;4.38;86.22;100461.59;5032224;28;20202;-65
2022/12/04 07:29:10;;;;;;;7.78;4.90;;;4.40;99.90;;;4.42;86.87;100463.13;5042020;28;20199;-65
2022/12/04 07:31:37;;;;;;;6.63;3.90;;;4.40;99.90;;;4.47;86.10;100465.47;5033625;28;20230;-65
2022/12/04 07:34:04;;;;;;;7.53;4.82;;;4.40;99.90;;;4.38;86.79;100461.59;5036786;28;20231;-65
2022/12/04 07:36:31;;;;;;;8.70;4.55;;;4.30;99.90;;;4.36;87.18;100467.75;5029238;28;20213;-66
2022/12/04 07:38:58;;;;;;;8.43;4.05;;;4.30;99.90;;;4.29;87.19;100466.38;5030223;28;20736;-65
2022/12/04 07:41:25;;;;;;;6.07;3.97;;;4.30;99.90;;;4.45;86.65;100467.31;5029981;28;20228;-68
2022/12/04 07:43:53;;;;;;;7.18;3.92;;;4.40;99.90;;;4.52;86.63;100474.66;5051577;28;20741;-67
2022/12/04 07:46:24;;;;;;;7.88;4.65;;;4.40;99.90;;;4.34;86.91;100470.41;5030882;28;20201;-66
2022/12/04 07:48:54;;;;;;;6.90;3.95;;;4.40;99.90;;;4.60;86.43;100476.84;5031136;28;20217;-69
2022/12/04 07:51:24;;;;;;;6.75;4.40;;;4.40;99.90;;;4.62;86.16;100469.88;5015136;28;20286;-65
2022/12/04 07:53:53;;;;;;;9.65;4.85;;;4.40;99.90;;;4.71;85.70;100472.84;5029696;28;20200;-68
2022/12/04 07:56:20;;;;;;;7.80;5.30;;;4.50;99.90;;;4.52;86.70;100477.25;5040737;28;20224;-68
2022/12/04 07:58:47;;;;;;;9.38;5.30;;;4.50;99.90;;;4.58;86.18;100474.34;5046119;28;20219;-66
2022/12/04 08:01:19;;;;;;;7.70;5.63;;;4.50;99.90;;;4.45;87.46;100472.47;5029223;28;20225;-67
2022/12/04 08:03:49;;;;;;;9.10;5.38;;;4.40;99.90;;;4.35;87.99;100456.56;5035564;28;20195;-65
2022/12/04 08:06:19;;;;;;;9.07;5.38;;;4.40;99.90;;;4.34;87.73;100460.09;5038949;28;20213;-68
2022/12/04 08:08:47;;;;;;;9.23;5.53;;;4.40;99.90;;;4.44;87.56;100461.28;5023412;28;20202;-65
2022/12/04 08:11:18;;;;;;;8.18;4.82;;;4.40;99.90;;;4.52;86.84;100468.66;5041519;28;20219;-68
2022/12/04 08:13:45;;;;;;;9.60;5.65;;;4.40;99.90;;;4.33;87.51;100460.13;5044703;28;20572;-66
2022/12/04 08:16:12;;;;;;;10.30;5.95;;;4.40;99.90;;;4.29;88.53;100463.78;5034811;28;20197;-65
2022/12/04 08:18:41;;;;;;;9.18;5.75;;;4.30;99.90;;;4.41;87.68;100458.84;5006700;28;20581;-65
2022/12/04 08:21:10;;;;;;;9.77;5.07;;;4.30;99.90;;;4.31;88.09;100460.22;5010440;28;20249;-69
2022/12/04 08:23:39;;;;;;;10.57;5.70;;;4.30;99.90;;;4.34;88.49;100457.50;5033522;28;20212;-66
2022/12/04 08:26:07;;;;;;;8.90;6.20;;;4.30;99.90;;;4.30;88.53;100455.16;5038289;28;20664;-65
2022/12/04 08:28:35;;;;;;;5.75;4.70;;;4.30;99.90;;;4.45;87.54;100462.94;5037405;28;20571;-66
2022/12/04 08:31:08;;;;;;;8.60;5.30;;;4.40;99.90;;;4.48;87.25;100461.97;5051071;22;20230;-65
2022/12/04 08:33:35;;;;;;;8.25;5.05;;;4.40;99.90;;;4.23;89.09;100454.59;5011125;28;20267;-64
2022/12/04 08:36:06;;;;;;;5.18;3.80;;;4.30;99.90;;;4.33;88.47;100452.38;5030758;28;20207;-63
2022/12/04 08:38:34;;;;;;;10.13;6.00;;;4.30;99.90;;;4.27;88.71;100450.13;5041795;28;20199;-65
2022/12/04 08:41:03;;;;;;;8.77;5.43;;;4.30;99.90;;;4.24;89.59;100447.69;5030366;28;20237;-66
2022/12/04 08:43:31;;;;;;;9.68;5.28;;;4.30;99.90;;;4.33;88.58;100452.38;5039683;28;20228;-66
2022/12/04 08:46:13;;;;;;;5.65;3.78;;;4.30;99.90;;;4.30;88.75;100461.13;5028930;28;20199;-65
2022/12/04 08:48:40;;;;;;;7.35;4.25;;;4.30;99.90;;;4.32;89.41;100454.13;5028339;28;20644;-65
2022/12/04 08:51:16;;;;;;;7.38;4.97;;;4.30;99.90;;;4.20;89.65;100457.31;5049487;28;20222;-67
2022/12/04 08:53:44;;;;;;;8.93;5.38;;;4.30;99.90;;;4.36;89.26;100463.44;5032369;28;20673;-64
2022/12/04 08:56:12;;;;;;;7.50;4.45;;;4.30;99.90;;;4.47;88.56;100466.28;5029627;28;20216;-66
2022/12/04 08:58:39;;;;;;;9.95;5.30;;;4.40;99.90;;;4.39;89.15;100462.41;5035435;28;20203;-66
2022/12/04 09:01:11;;;;;;;6.68;4.43;;;4.40;99.90;;;4.49;89.01;100468.81;5039807;28;20224;-64
2022/12/04 09:03:41;;;;;;;7.53;4.75;;;4.40;99.90;;;4.43;89.09;100475.13;5035493;28;20222;-65
2022/12/04 09:06:11;;;;;;;5.88;3.90;;;4.40;99.90;;;4.56;88.44;100478.75;5036889;28;20203;-65
2022/12/04 09:08:38;;;;;;;6.95;4.03;;;4.40;99.90;;;4.75;87.71;100460.59;5008835;28;20202;-65
2022/12/04 09:11:26;;;;;;;13.63;7.53;;;4.50;99.90;;;4.69;87.79;100451.41;5028161;28;20251;-66
2022/12/04 09:13:54;;;;;;;12.82;7.35;;;4.60;99.90;;;4.59;87.44;100462.28;5033413;28;20213;-65
2022/12/04 09:16:24;;;;;;;12.43;7.78;;;4.60;99.90;;;4.41;88.33;100473.50;5045475;28;20273;-65
2022/12/04 09:18:51;;;;;;;10.93;7.10;;;4.50;99.90;;;4.23;88.84;100469.25;5025997;28;20248;-66
2022/12/04 09:21:21;;;;;;;14.55;9.10;;;4.40;99.90;;;4.26;89.35;100456.22;5046605;28;20224;-65
2022/12/04 09:23:49;;;;;;;14.70;7.70;;;4.30;99.90;;;4.23;89.96;100464.09;5015614;28;20583;-65
2022/12/04 09:26:24;;;;;;;16.10;7.90;;;4.30;99.90;;;4.23;89.97;100462.34;5032276;28;20233;-66
2022/12/04 09:28:53;;;;;;;13.35;7.40;;;4.30;99.90;;;4.19;89.67;100471.16;5042807;28;20204;-65
2022/12/04 09:31:21;;;;;;;13.18;7.50;;;4.20;99.90;;;4.20;89.97;100470.22;5024501;28;20581;-65
2022/12/04 09:33:48;;;;;;;11.30;7.03;;;4.20;99.90;;;4.34;89.19;100470.41;5043547;28;21726;-69
2022/12/04 09:36:16;;;;;;;15.65;8.52;;;4.20;99.90;;;4.20;89.55;100475.41;5050334;28;20207;-66
2022/12/04 09:38:45;;;;;;;14.27;7.13;;;4.20;99.90;;;4.26;89.46;100467.34;5051400;28;20212;-64
2022/12/04 09:41:45;;;;;;;10.10;4.78;;;4.20;99.90;;;4.22;89.24;100471.00;5033444;28;20222;-65
2022/12/04 09:44:34;;;;;;;12.52;6.35;;;4.20;99.90;;;4.34;88.45;100465.25;5027079;28;20196;-65
2022/12/04 09:47:27;;;;;;;10.63;6.13;;;4.20;99.90;;;4.34;88.22;100470.41;5042300;28;20196;-64
2022/12/04 09:50:11;;;;;;;11.40;6.38;;;4.30;99.90;;;4.44;87.71;100476.78;5019822;28;20206;-65
2022/12/04 09:53:14;;;;;;;13.02;5.78;;;4.30;99.90;;;4.41;87.48;100481.25;5032083;28;20230;-64
2022/12/04 09:56:09;;;;;;;15.30;7.75;;;4.40;99.90;;;4.26;88.90;100471.69;5012733;28;20203;-64
2022/12/04 09:58:41;;;;;;;10.13;5.97;;;4.30;99.90;;;4.23;89.08;100458.94;5018455;28;20664;-64
2022/12/04 10:01:47;;;;;;;15.52;8.00;;;4.20;99.90;;;4.33;88.63;100466.16;5025490;28;20676;-64
2022/12/04 10:04:15;;;;;;;14.90;7.15;;;4.30;99.90;;;4.25;88.32;100455.38;5000259;28;20207;-63
2022/12/04 10:07:09;;;;;;;12.75;8.40;;;4.30;99.90;;;4.25;88.78;100452.78;5029023;28;20202;-64
2022/12/04 10:10:26;;;;;;;14.50;7.45;;;4.30;99.90;;;4.27;88.84;100448.38;5028283;28;20206;-64
2022/12/04 10:12:57;;;;;;;13.23;6.93;;;4.30;99.90;;;4.25;89.41;100442.44;5026821;28;20710;-64
2022/12/04 10:15:45;;;;;;;13.85;6.90;;;4.20;99.90;;;4.00;90.42;100447.13;5012985;28;20681;-65
2022/12/04 10:18:43;;;;;;;14.73;7.65;;;4.20;99.90;;;4.38;88.65;100440.94;5004850;28;20254;-64
2022/12/04 10:21:31;;;;;;;13.10;7.05;;;4.20;99.90;;;4.30;88.44;100440.47;5027810;28;20220;-66
2022/12/04 10:24:23;;;;;;;15.57;8.57;;;4.30;99.90;;;4.32;88.93;100448.97;5014484;28;20235;-65
2022/12/04 10:26:53;;;;;;;12.68;6.50;;;4.30;99.90;;;4.39;88.22;100446.91;5009343;28;20254;-65
2022/12/04 10:29:28;;;;;;;11.40;5.90;;;4.30;99.90;;;4.50;87.82;100426.56;5013289;28;20555;-66
2022/12/04 10:32:16;;;;;;;9.85;5.70;;;4.40;99.90;;;4.42;88.14;100423.53;5009420;28;20219;-65
2022/12/04 10:34:44;;;;;;;15.05;7.25;;;4.40;99.90;;;4.55;87.94;100420.28;5013199;28;20575;-66
2022/12/04 10:37:13;;;;;;;14.07;6.95;;;4.40;99.90;;;4.52;87.88;100419.56;5032461;28;20199;-65
2022/12/04 10:39:50;;;;;;;11.85;5.60;;;4.40;99.90;;;4.41;88.69;100416.69;5031062;28;20672;-66
2022/12/04 10:42:28;;;;;;;14.35;6.75;;;4.40;99.90;;;4.49;88.12;100410.22;5014464;28;20228;-65
2022/12/04 10:44:55;;;;;;;13.30;7.18;;;4.40;99.90;;;4.43;88.85;100404.56;5035197;28;20615;-65
2022/12/04 10:47:23;;;;;;;12.10;7.53;;;4.40;99.90;;;4.55;88.04;100399.59;5031946;28;20197;-65
2022/12/04 10:50:05;;;;;;;13.00;7.63;;;4.40;99.90;;;4.36;88.95;100403.19;5046461;28;20554;-64
2022/12/04 10:52:32;;;;;;;12.43;7.50;;;4.40;99.90;;;4.54;88.37;100397.91;5035501;28;20225;-65
2022/12/04 10:55:00;;;;;;;15.05;7.50;;;4.50;99.90;;;4.36;89.42;100393.69;5030459;28;20208;-64
2022/12/04 10:57:38;;;;;;;11.10;6.53;;;4.40;99.90;;;4.47;88.42;100400.91;5030595;28;20207;-65
2022/12/04 11:00:25;;;;;;;12.70;7.32;;;4.40;99.90;;;4.44;89.12;100403.63;5025478;28;20207;-65
2022/12/04 11:02:56;;;;;;;15.40;7.57;;;4.40;99.90;;;4.37;89.54;100397.09;5028007;28;20224;-65
2022/12/04 11:05:51;;;;;;;15.25;8.57;;;4.30;99.90;;;4.44;89.64;100393.28;5031118;28;20670;-64